FQMA/MPM METAR and TAF weather

Enter ICAO airport designator
Station Type Date Time Source
FQMA METAR 2019/12/06 04:00 UTC NOAA

FQMA 060400Z VRB01KT 9999 BKN025 18/17 Q1019 NOSIG


Station Type Date Time Source
FQMA Decoded METAR 2019/12/06 04:00 UTC NOAA

Maputo / Mavalane, Mozambique (FQMA) 25-55S 032-34E 44M
Dec 05, 2019 - 11:00 PM EST / 2019.12.06 0400 UTC
Wind: Variable at 1 MPH (1 KT):0
Visibility: greater than 7 mile(s):0
Sky conditions: mostly cloudy
Temperature: 64 F (18 C)
Dew Point: 62 F (17 C)
Relative Humidity: 93%
Pressure (altimeter): 30.09 in. Hg (1019 hPa)
ob: FQMA 060400Z VRB01KT 9999 BKN025 18/17 Q1019 NOSIG
cycle: 4

Station Type Date Time Source
FQMA TAF 2019/12/06 06:54 UTC NOAA

TAF FQMA 060400Z 0606/0712 34005KT 9999 BKN020 TX28/0613Z TN18/0703Z
BECMG 0612/0614 05012KT FEW020
BECMG 0618/0620 17006KT

Example: see airport list